Blue Mounds, Wisconsin
Current Conditions -  °F | °C
As of 1:10 PM on Sunday 21 Dec 2014 (Local Time) from KC29 Reporting Station
Overcast Overcast  
Wind Chill: 29°   Ceiling: 800
Heat Index: 37°   Visibility: 5mi
Dew Point: 34°   Wind: 10mph
Humidity: 91%   Direction: 170°S
Pressure: 30"   Gusts: 18mph
Location:  43.02°N, 89.83°W
Report Text: KC29 211910Z AUTO 17009G16KT 5SM OVC008 03/01 A3000 RMK AO1 T00250011
Loading
Personal Weather Stations






























Interactive Weather Map New forecast layout! Learn more

10-Day Weather Forecast

Advertisements
Track Severe Weather on mobile